sensor_id;sensor_type;location;lat;lon;timestamp;P1;durP1;ratioP1;P2;durP2;ratioP2
15408;SDS011;7803;48.130;13.788;2023-11-21T00:00:47;5.70;;;4.85;;
15408;SDS011;7803;48.130;13.788;2023-11-21T00:03:49;6.45;;;5.20;;
15408;SDS011;7803;48.130;13.788;2023-11-21T00:06:54;6.65;;;5.40;;
15408;SDS011;7803;48.130;13.788;2023-11-21T00:09:58;6.90;;;5.55;;
15408;SDS011;7803;48.130;13.788;2023-11-21T00:13:00;8.27;;;5.88;;
15408;SDS011;7803;48.130;13.788;2023-11-21T00:16:03;6.45;;;5.50;;
15408;SDS011;7803;48.130;13.788;2023-11-21T00:19:05;9.63;;;6.40;;
15408;SDS011;7803;48.130;13.788;2023-11-21T00:22:07;7.00;;;5.90;;
15408;SDS011;7803;48.130;13.788;2023-11-21T00:25:11;8.05;;;6.25;;
15408;SDS011;7803;48.130;13.788;2023-11-21T00:28:15;8.13;;;6.38;;
15408;SDS011;7803;48.130;13.788;2023-11-21T00:31:17;12.73;;;7.82;;
15408;SDS011;7803;48.130;13.788;2023-11-21T00:34:19;7.35;;;6.28;;
15408;SDS011;7803;48.130;13.788;2023-11-21T00:37:21;7.43;;;6.25;;
15408;SDS011;7803;48.130;13.788;2023-11-21T00:40:25;9.63;;;6.50;;
15408;SDS011;7803;48.130;13.788;2023-11-21T00:43:30;11.60;;;7.50;;
15408;SDS011;7803;48.130;13.788;2023-11-21T00:46:33;9.85;;;7.10;;
15408;SDS011;7803;48.130;13.788;2023-11-21T00:49:35;10.18;;;7.45;;
15408;SDS011;7803;48.130;13.788;2023-11-21T00:52:39;10.23;;;7.60;;
15408;SDS011;7803;48.130;13.788;2023-11-21T00:55:44;11.07;;;8.02;;
15408;SDS011;7803;48.130;13.788;2023-11-21T00:58:46;12.40;;;8.60;;
15408;SDS011;7803;48.130;13.788;2023-11-21T01:01:50;13.70;;;9.23;;
15408;SDS011;7803;48.130;13.788;2023-11-21T01:04:52;12.13;;;8.23;;
15408;SDS011;7803;48.130;13.788;2023-11-21T01:07:54;13.43;;;8.63;;
15408;SDS011;7803;48.130;13.788;2023-11-21T01:10:57;15.07;;;8.57;;
15408;SDS011;7803;48.130;13.788;2023-11-21T01:13:59;9.32;;;6.32;;
15408;SDS011;7803;48.130;13.788;2023-11-21T01:17:02;9.95;;;6.32;;
15408;SDS011;7803;48.130;13.788;2023-11-21T01:20:05;6.97;;;5.18;;
15408;SDS011;7803;48.130;13.788;2023-11-21T01:23:12;8.55;;;5.28;;
15408;SDS011;7803;48.130;13.788;2023-11-21T01:26:15;7.70;;;5.13;;
15408;SDS011;7803;48.130;13.788;2023-11-21T01:29:17;9.80;;;5.30;;
15408;SDS011;7803;48.130;13.788;2023-11-21T01:32:20;6.82;;;4.78;;
15408;SDS011;7803;48.130;13.788;2023-11-21T01:35:22;7.50;;;4.75;;
15408;SDS011;7803;48.130;13.788;2023-11-21T01:38:24;8.18;;;4.53;;
15408;SDS011;7803;48.130;13.788;2023-11-21T01:41:27;7.18;;;4.50;;
15408;SDS011;7803;48.130;13.788;2023-11-21T01:44:30;8.75;;;4.78;;
15408;SDS011;7803;48.130;13.788;2023-11-21T01:47:32;9.82;;;5.15;;
15408;SDS011;7803;48.130;13.788;2023-11-21T01:50:36;7.00;;;4.32;;
15408;SDS011;7803;48.130;13.788;2023-11-21T01:53:38;6.78;;;4.07;;
15408;SDS011;7803;48.130;13.788;2023-11-21T01:56:42;7.13;;;4.47;;
15408;SDS011;7803;48.130;13.788;2023-11-21T01:59:45;7.15;;;4.38;;
15408;SDS011;7803;48.130;13.788;2023-11-21T02:02:48;5.80;;;3.90;;
15408;SDS011;7803;48.130;13.788;2023-11-21T02:05:50;8.10;;;4.43;;
15408;SDS011;7803;48.130;13.788;2023-11-21T02:08:53;7.57;;;4.40;;
15408;SDS011;7803;48.130;13.788;2023-11-21T02:11:56;6.32;;;4.07;;
15408;SDS011;7803;48.130;13.788;2023-11-21T02:14:59;7.05;;;4.25;;
15408;SDS011;7803;48.130;13.788;2023-11-21T02:18:01;7.35;;;4.82;;
15408;SDS011;7803;48.130;13.788;2023-11-21T02:21:06;5.88;;;4.53;;
15408;SDS011;7803;48.130;13.788;2023-11-21T02:24:09;7.25;;;5.13;;
15408;SDS011;7803;48.130;13.788;2023-11-21T02:27:12;6.97;;;4.80;;
15408;SDS011;7803;48.130;13.788;2023-11-21T02:30:17;8.63;;;4.90;;
15408;SDS011;7803;48.130;13.788;2023-11-21T02:33:19;8.02;;;5.25;;
15408;SDS011;7803;48.130;13.788;2023-11-21T02:36:21;7.57;;;5.07;;
15408;SDS011;7803;48.130;13.788;2023-11-21T02:39:24;6.07;;;4.72;;
15408;SDS011;7803;48.130;13.788;2023-11-21T02:42:26;8.63;;;5.60;;
15408;SDS011;7803;48.130;13.788;2023-11-21T02:45:29;7.25;;;5.18;;
15408;SDS011;7803;48.130;13.788;2023-11-21T02:48:31;6.82;;;5.40;;
15408;SDS011;7803;48.130;13.788;2023-11-21T02:51:33;6.60;;;5.28;;
15408;SDS011;7803;48.130;13.788;2023-11-21T02:54:37;7.20;;;5.00;;
15408;SDS011;7803;48.130;13.788;2023-11-21T02:57:38;10.40;;;6.00;;
15408;SDS011;7803;48.130;13.788;2023-11-21T03:00:40;8.32;;;5.55;;
15408;SDS011;7803;48.130;13.788;2023-11-21T03:03:43;8.10;;;5.85;;
15408;SDS011;7803;48.130;13.788;2023-11-21T03:06:45;6.70;;;5.32;;
15408;SDS011;7803;48.130;13.788;2023-11-21T03:09:49;8.10;;;5.93;;
15408;SDS011;7803;48.130;13.788;2023-11-21T03:12:51;6.85;;;5.20;;
15408;SDS011;7803;48.130;13.788;2023-11-21T03:15:52;10.57;;;6.43;;
15408;SDS011;7803;48.130;13.788;2023-11-21T03:18:54;7.85;;;5.95;;
15408;SDS011;7803;48.130;13.788;2023-11-21T03:21:56;8.45;;;6.00;;
15408;SDS011;7803;48.130;13.788;2023-11-21T03:25:00;7.43;;;5.57;;
15408;SDS011;7803;48.130;13.788;2023-11-21T03:28:03;8.15;;;6.10;;
15408;SDS011;7803;48.130;13.788;2023-11-21T03:31:05;7.65;;;6.07;;
15408;SDS011;7803;48.130;13.788;2023-11-21T03:34:11;8.68;;;6.30;;
15408;SDS011;7803;48.130;13.788;2023-11-21T03:37:16;9.65;;;6.60;;
15408;SDS011;7803;48.130;13.788;2023-11-21T03:40:22;7.68;;;6.20;;
15408;SDS011;7803;48.130;13.788;2023-11-21T03:43:25;8.63;;;6.68;;
15408;SDS011;7803;48.130;13.788;2023-11-21T03:46:27;8.93;;;6.38;;
15408;SDS011;7803;48.130;13.788;2023-11-21T03:49:29;7.60;;;6.15;;
15408;SDS011;7803;48.130;13.788;2023-11-21T03:52:31;10.60;;;7.03;;
15408;SDS011;7803;48.130;13.788;2023-11-21T03:55:34;10.88;;;6.35;;
15408;SDS011;7803;48.130;13.788;2023-11-21T03:58:36;9.18;;;6.40;;
15408;SDS011;7803;48.130;13.788;2023-11-21T04:01:38;9.23;;;6.55;;
15408;SDS011;7803;48.130;13.788;2023-11-21T04:04:40;8.02;;;6.28;;
15408;SDS011;7803;48.130;13.788;2023-11-21T04:07:42;9.70;;;6.50;;
15408;SDS011;7803;48.130;13.788;2023-11-21T04:10:46;7.03;;;6.07;;
15408;SDS011;7803;48.130;13.788;2023-11-21T04:13:48;8.38;;;6.38;;
15408;SDS011;7803;48.130;13.788;2023-11-21T04:16:50;8.73;;;6.70;;
15408;SDS011;7803;48.130;13.788;2023-11-21T04:19:53;8.10;;;6.53;;
15408;SDS011;7803;48.130;13.788;2023-11-21T04:22:55;7.80;;;6.30;;
15408;SDS011;7803;48.130;13.788;2023-11-21T04:25:59;7.53;;;6.25;;
15408;SDS011;7803;48.130;13.788;2023-11-21T04:29:02;9.80;;;7.05;;
15408;SDS011;7803;48.130;13.788;2023-11-21T04:32:04;8.38;;;6.93;;
15408;SDS011;7803;48.130;13.788;2023-11-21T04:35:08;7.32;;;6.05;;
15408;SDS011;7803;48.130;13.788;2023-11-21T04:38:10;8.60;;;6.57;;
15408;SDS011;7803;48.130;13.788;2023-11-21T04:41:14;7.30;;;6.50;;
15408;SDS011;7803;48.130;13.788;2023-11-21T04:44:15;8.75;;;6.28;;
15408;SDS011;7803;48.130;13.788;2023-11-21T04:47:18;8.45;;;6.60;;
15408;SDS011;7803;48.130;13.788;2023-11-21T04:50:20;7.40;;;6.18;;
15408;SDS011;7803;48.130;13.788;2023-11-21T04:53:21;10.38;;;7.28;;
15408;SDS011;7803;48.130;13.788;2023-11-21T04:56:25;10.10;;;7.25;;
15408;SDS011;7803;48.130;13.788;2023-11-21T04:59:27;8.38;;;7.20;;
15408;SDS011;7803;48.130;13.788;2023-11-21T05:02:29;9.50;;;7.18;;
15408;SDS011;7803;48.130;13.788;2023-11-21T05:05:31;11.52;;;8.02;;
15408;SDS011;7803;48.130;13.788;2023-11-21T05:08:34;10.15;;;7.25;;
15408;SDS011;7803;48.130;13.788;2023-11-21T05:11:38;12.98;;;8.18;;
15408;SDS011;7803;48.130;13.788;2023-11-21T05:14:41;9.57;;;6.70;;
15408;SDS011;7803;48.130;13.788;2023-11-21T05:17:43;9.13;;;7.00;;
15408;SDS011;7803;48.130;13.788;2023-11-21T05:20:47;8.85;;;6.88;;
15408;SDS011;7803;48.130;13.788;2023-11-21T05:23:49;10.80;;;7.53;;
15408;SDS011;7803;48.130;13.788;2023-11-21T05:26:52;8.63;;;6.53;;
15408;SDS011;7803;48.130;13.788;2023-11-21T05:29:54;8.93;;;7.00;;
15408;SDS011;7803;48.130;13.788;2023-11-21T05:32:56;9.45;;;7.32;;
15408;SDS011;7803;48.130;13.788;2023-11-21T05:35:59;10.57;;;7.03;;
15408;SDS011;7803;48.130;13.788;2023-11-21T05:39:02;10.43;;;6.70;;
15408;SDS011;7803;48.130;13.788;2023-11-21T05:42:06;8.52;;;6.70;;
15408;SDS011;7803;48.130;13.788;2023-11-21T05:45:09;9.68;;;6.50;;
15408;SDS011;7803;48.130;13.788;2023-11-21T05:48:11;8.63;;;6.43;;
15408;SDS011;7803;48.130;13.788;2023-11-21T05:51:13;10.23;;;6.75;;
15408;SDS011;7803;48.130;13.788;2023-11-21T05:54:15;9.75;;;6.70;;
15408;SDS011;7803;48.130;13.788;2023-11-21T05:57:19;8.48;;;6.80;;
15408;SDS011;7803;48.130;13.788;2023-11-21T06:00:20;9.73;;;7.13;;
15408;SDS011;7803;48.130;13.788;2023-11-21T06:03:25;8.18;;;6.60;;
15408;SDS011;7803;48.130;13.788;2023-11-21T06:06:27;10.38;;;6.65;;
15408;SDS011;7803;48.130;13.788;2023-11-21T06:09:29;12.20;;;7.32;;
15408;SDS011;7803;48.130;13.788;2023-11-21T06:12:32;8.55;;;6.40;;
15408;SDS011;7803;48.130;13.788;2023-11-21T06:15:36;9.32;;;6.38;;
15408;SDS011;7803;48.130;13.788;2023-11-21T06:18:38;6.93;;;5.57;;
15408;SDS011;7803;48.130;13.788;2023-11-21T06:21:40;8.07;;;5.63;;
15408;SDS011;7803;48.130;13.788;2023-11-21T06:24:42;7.20;;;6.13;;
15408;SDS011;7803;48.130;13.788;2023-11-21T06:27:47;8.88;;;6.32;;
15408;SDS011;7803;48.130;13.788;2023-11-21T06:30:50;7.90;;;5.80;;
15408;SDS011;7803;48.130;13.788;2023-11-21T06:33:53;8.02;;;6.20;;
15408;SDS011;7803;48.130;13.788;2023-11-21T06:36:55;8.95;;;6.53;;
15408;SDS011;7803;48.130;13.788;2023-11-21T06:39:57;8.85;;;6.13;;
15408;SDS011;7803;48.130;13.788;2023-11-21T06:43:01;7.30;;;5.45;;
15408;SDS011;7803;48.130;13.788;2023-11-21T06:46:03;11.35;;;5.72;;
15408;SDS011;7803;48.130;13.788;2023-11-21T06:49:05;6.85;;;4.88;;
15408;SDS011;7803;48.130;13.788;2023-11-21T06:52:07;7.10;;;4.80;;
15408;SDS011;7803;48.130;13.788;2023-11-21T06:55:09;6.07;;;4.68;;
15408;SDS011;7803;48.130;13.788;2023-11-21T06:58:13;11.65;;;6.00;;
15408;SDS011;7803;48.130;13.788;2023-11-21T07:01:15;6.97;;;4.80;;
15408;SDS011;7803;48.130;13.788;2023-11-21T07:04:17;7.30;;;4.97;;
15408;SDS011;7803;48.130;13.788;2023-11-21T07:07:20;7.50;;;5.00;;
15408;SDS011;7803;48.130;13.788;2023-11-21T07:10:22;7.35;;;5.18;;
15408;SDS011;7803;48.130;13.788;2023-11-21T07:13:25;9.25;;;5.15;;
15408;SDS011;7803;48.130;13.788;2023-11-21T07:16:27;10.02;;;5.25;;
15408;SDS011;7803;48.130;13.788;2023-11-21T07:19:35;7.90;;;4.60;;
15408;SDS011;7803;48.130;13.788;2023-11-21T07:22:37;10.82;;;5.95;;
15408;SDS011;7803;48.130;13.788;2023-11-21T07:25:38;7.25;;;4.45;;
15408;SDS011;7803;48.130;13.788;2023-11-21T07:28:42;9.38;;;5.57;;
15408;SDS011;7803;48.130;13.788;2023-11-21T07:31:44;9.98;;;5.82;;
15408;SDS011;7803;48.130;13.788;2023-11-21T07:34:46;8.02;;;4.50;;
15408;SDS011;7803;48.130;13.788;2023-11-21T07:37:48;9.80;;;4.72;;
15408;SDS011;7803;48.130;13.788;2023-11-21T07:40:50;7.97;;;4.80;;
15408;SDS011;7803;48.130;13.788;2023-11-21T07:43:53;5.25;;;4.10;;
15408;SDS011;7803;48.130;13.788;2023-11-21T07:46:56;10.98;;;5.22;;
15408;SDS011;7803;48.130;13.788;2023-11-21T07:49:58;6.78;;;4.60;;
15408;SDS011;7803;48.130;13.788;2023-11-21T07:53:00;5.57;;;4.50;;
15408;SDS011;7803;48.130;13.788;2023-11-21T07:56:06;6.40;;;4.53;;
15408;SDS011;7803;48.130;13.788;2023-11-21T07:59:10;8.55;;;5.18;;
15408;SDS011;7803;48.130;13.788;2023-11-21T08:02:14;10.80;;;5.15;;
15408;SDS011;7803;48.130;13.788;2023-11-21T08:05:16;9.40;;;4.60;;
15408;SDS011;7803;48.130;13.788;2023-11-21T08:08:18;9.15;;;4.90;;
15408;SDS011;7803;48.130;13.788;2023-11-21T08:11:20;6.43;;;4.75;;
15408;SDS011;7803;48.130;13.788;2023-11-21T08:14:24;7.43;;;4.63;;
15408;SDS011;7803;48.130;13.788;2023-11-21T08:17:26;5.75;;;4.22;;
15408;SDS011;7803;48.130;13.788;2023-11-21T08:20:29;5.55;;;4.30;;
15408;SDS011;7803;48.130;13.788;2023-11-21T08:23:31;8.43;;;5.03;;
15408;SDS011;7803;48.130;13.788;2023-11-21T08:26:34;7.35;;;4.57;;
15408;SDS011;7803;48.130;13.788;2023-11-21T08:29:37;7.50;;;4.65;;
15408;SDS011;7803;48.130;13.788;2023-11-21T08:32:39;5.85;;;4.45;;
15408;SDS011;7803;48.130;13.788;2023-11-21T08:35:41;5.40;;;3.97;;
15408;SDS011;7803;48.130;13.788;2023-11-21T08:38:43;7.20;;;4.55;;
15408;SDS011;7803;48.130;13.788;2023-11-21T08:41:45;7.40;;;4.93;;
15408;SDS011;7803;48.130;13.788;2023-11-21T08:44:49;9.05;;;4.55;;
15408;SDS011;7803;48.130;13.788;2023-11-21T08:47:51;4.70;;;3.67;;
15408;SDS011;7803;48.130;13.788;2023-11-21T08:50:53;5.78;;;4.07;;
15408;SDS011;7803;48.130;13.788;2023-11-21T08:53:55;6.35;;;4.53;;
15408;SDS011;7803;48.130;13.788;2023-11-21T08:56:59;4.45;;;3.85;;
15408;SDS011;7803;48.130;13.788;2023-11-21T09:00:04;5.70;;;3.90;;
15408;SDS011;7803;48.130;13.788;2023-11-21T09:03:08;5.72;;;4.22;;
15408;SDS011;7803;48.130;13.788;2023-11-21T09:06:11;5.22;;;3.92;;
15408;SDS011;7803;48.130;13.788;2023-11-21T09:09:14;6.30;;;4.15;;
15408;SDS011;7803;48.130;13.788;2023-11-21T09:12:16;6.22;;;4.40;;
15408;SDS011;7803;48.130;13.788;2023-11-21T09:15:20;8.00;;;4.88;;
15408;SDS011;7803;48.130;13.788;2023-11-21T09:18:22;6.13;;;4.18;;
15408;SDS011;7803;48.130;13.788;2023-11-21T09:21:24;4.82;;;3.95;;
15408;SDS011;7803;48.130;13.788;2023-11-21T09:24:27;4.50;;;3.80;;
15408;SDS011;7803;48.130;13.788;2023-11-21T09:27:30;5.18;;;4.15;;
15408;SDS011;7803;48.130;13.788;2023-11-21T09:30:33;4.82;;;3.97;;
15408;SDS011;7803;48.130;13.788;2023-11-21T09:33:36;5.20;;;3.78;;
15408;SDS011;7803;48.130;13.788;2023-11-21T09:36:38;7.57;;;4.20;;
15408;SDS011;7803;48.130;13.788;2023-11-21T09:39:41;7.05;;;3.95;;
15408;SDS011;7803;48.130;13.788;2023-11-21T09:42:45;4.38;;;3.40;;
15408;SDS011;7803;48.130;13.788;2023-11-21T09:45:56;4.80;;;3.58;;
15408;SDS011;7803;48.130;13.788;2023-11-21T09:49:03;5.68;;;4.15;;
15408;SDS011;7803;48.130;13.788;2023-11-21T09:52:08;5.07;;;3.42;;
15408;SDS011;7803;48.130;13.788;2023-11-21T09:55:15;5.05;;;3.50;;
15408;SDS011;7803;48.130;13.788;2023-11-21T09:58:21;3.55;;;3.22;;
15408;SDS011;7803;48.130;13.788;2023-11-21T10:01:26;4.38;;;3.67;;
15408;SDS011;7803;48.130;13.788;2023-11-21T10:04:29;4.32;;;3.50;;
15408;SDS011;7803;48.130;13.788;2023-11-21T10:07:33;4.65;;;3.70;;
15408;SDS011;7803;48.130;13.788;2023-11-21T10:10:36;5.18;;;4.10;;
15408;SDS011;7803;48.130;13.788;2023-11-21T10:13:41;5.95;;;4.03;;
15408;SDS011;7803;48.130;13.788;2023-11-21T10:16:47;5.13;;;3.80;;
15408;SDS011;7803;48.130;13.788;2023-11-21T10:19:50;5.80;;;4.20;;
15408;SDS011;7803;48.130;13.788;2023-11-21T10:22:56;6.10;;;4.50;;
15408;SDS011;7803;48.130;13.788;2023-11-21T10:25:58;6.55;;;4.30;;
15408;SDS011;7803;48.130;13.788;2023-11-21T10:29:02;4.70;;;4.07;;
15408;SDS011;7803;48.130;13.788;2023-11-21T10:32:05;5.20;;;4.68;;
15408;SDS011;7803;48.130;13.788;2023-11-21T10:35:08;5.95;;;4.93;;
15408;SDS011;7803;48.130;13.788;2023-11-21T10:38:11;6.10;;;4.88;;
15408;SDS011;7803;48.130;13.788;2023-11-21T10:41:14;5.80;;;5.20;;
15408;SDS011;7803;48.130;13.788;2023-11-21T10:44:16;6.25;;;5.22;;
15408;SDS011;7803;48.130;13.788;2023-11-21T10:47:22;6.07;;;5.07;;
15408;SDS011;7803;48.130;13.788;2023-11-21T10:50:25;7.30;;;5.65;;
15408;SDS011;7803;48.130;13.788;2023-11-21T10:53:30;6.85;;;5.53;;
15408;SDS011;7803;48.130;13.788;2023-11-21T10:56:31;7.55;;;5.78;;
15408;SDS011;7803;48.130;13.788;2023-11-21T10:59:36;9.23;;;6.43;;
15408;SDS011;7803;48.130;13.788;2023-11-21T11:02:40;8.48;;;6.13;;
15408;SDS011;7803;48.130;13.788;2023-11-21T11:05:46;12.05;;;7.65;;
15408;SDS011;7803;48.130;13.788;2023-11-21T11:08:51;12.50;;;7.90;;
15408;SDS011;7803;48.130;13.788;2023-11-21T11:11:53;27.60;;;12.77;;
15408;SDS011;7803;48.130;13.788;2023-11-21T11:14:58;14.00;;;9.65;;
15408;SDS011;7803;48.130;13.788;2023-11-21T11:18:06;16.38;;;9.93;;
15408;SDS011;7803;48.130;13.788;2023-11-21T11:21:11;26.02;;;11.35;;
15408;SDS011;7803;48.130;13.788;2023-11-21T11:24:39;16.33;;;10.05;;
15408;SDS011;7803;48.130;13.788;2023-11-21T11:27:54;16.00;;;10.57;;
15408;SDS011;7803;48.130;13.788;2023-11-21T11:31:03;15.48;;;10.55;;
15408;SDS011;7803;48.130;13.788;2023-11-21T11:34:15;15.18;;;10.60;;
15408;SDS011;7803;48.130;13.788;2023-11-21T11:37:25;13.50;;;11.05;;
15408;SDS011;7803;48.130;13.788;2023-11-21T11:40:38;13.48;;;10.32;;
15408;SDS011;7803;48.130;13.788;2023-11-21T11:43:41;14.18;;;11.07;;
15408;SDS011;7803;48.130;13.788;2023-11-21T11:46:44;13.93;;;11.50;;
15408;SDS011;7803;48.130;13.788;2023-11-21T11:50:02;12.50;;;10.70;;
15408;SDS011;7803;48.130;13.788;2023-11-21T11:53:13;15.52;;;11.38;;
15408;SDS011;7803;48.130;13.788;2023-11-21T11:56:23;12.82;;;10.65;;
15408;SDS011;7803;48.130;13.788;2023-11-21T11:59:26;14.02;;;11.25;;
15408;SDS011;7803;48.130;13.788;2023-11-21T12:02:28;15.52;;;11.50;;
15408;SDS011;7803;48.130;13.788;2023-11-21T12:05:33;13.70;;;10.80;;
15408;SDS011;7803;48.130;13.788;2023-11-21T12:08:38;16.50;;;11.60;;
15408;SDS011;7803;48.130;13.788;2023-11-21T12:11:42;14.35;;;10.70;;
15408;SDS011;7803;48.130;13.788;2023-11-21T12:14:44;13.73;;;11.32;;
15408;SDS011;7803;48.130;13.788;2023-11-21T12:17:47;12.82;;;10.68;;
15408;SDS011;7803;48.130;13.788;2023-11-21T12:20:51;13.30;;;10.95;;
15408;SDS011;7803;48.130;13.788;2023-11-21T12:23:53;20.23;;;12.77;;
15408;SDS011;7803;48.130;13.788;2023-11-21T12:26:55;23.27;;;11.48;;
15408;SDS011;7803;48.130;13.788;2023-11-21T12:29:57;22.63;;;10.40;;
15408;SDS011;7803;48.130;13.788;2023-11-21T12:33:00;15.25;;;7.72;;
15408;SDS011;7803;48.130;13.788;2023-11-21T12:36:04;13.68;;;7.40;;
15408;SDS011;7803;48.130;13.788;2023-11-21T12:39:10;10.18;;;6.22;;
15408;SDS011;7803;48.130;13.788;2023-11-21T12:42:12;8.43;;;4.90;;
15408;SDS011;7803;48.130;13.788;2023-11-21T12:45:18;9.13;;;5.55;;
15408;SDS011;7803;48.130;13.788;2023-11-21T12:48:21;7.20;;;4.15;;
15408;SDS011;7803;48.130;13.788;2023-11-21T12:51:26;9.32;;;5.07;;
15408;SDS011;7803;48.130;13.788;2023-11-21T12:54:29;15.43;;;6.50;;
15408;SDS011;7803;48.130;13.788;2023-11-21T12:57:31;13.40;;;5.90;;
15408;SDS011;7803;48.130;13.788;2023-11-21T13:00:33;18.90;;;8.00;;
15408;SDS011;7803;48.130;13.788;2023-11-21T13:03:37;20.42;;;9.00;;
15408;SDS011;7803;48.130;13.788;2023-11-21T13:06:41;12.77;;;6.63;;
15408;SDS011;7803;48.130;13.788;2023-11-21T13:09:44;11.68;;;6.80;;
15408;SDS011;7803;48.130;13.788;2023-11-21T13:12:46;8.18;;;5.07;;
15408;SDS011;7803;48.130;13.788;2023-11-21T13:15:48;9.90;;;5.97;;
15408;SDS011;7803;48.130;13.788;2023-11-21T13:18:51;6.55;;;4.78;;
15408;SDS011;7803;48.130;13.788;2023-11-21T13:21:54;7.45;;;4.30;;
15408;SDS011;7803;48.130;13.788;2023-11-21T13:24:56;6.18;;;4.93;;
15408;SDS011;7803;48.130;13.788;2023-11-21T13:27:58;5.75;;;4.57;;
15408;SDS011;7803;48.130;13.788;2023-11-21T13:31:02;8.00;;;5.53;;
15408;SDS011;7803;48.130;13.788;2023-11-21T13:34:09;6.22;;;5.07;;
15408;SDS011;7803;48.130;13.788;2023-11-21T13:37:16;8.15;;;6.75;;
15408;SDS011;7803;48.130;13.788;2023-11-21T13:40:21;8.68;;;7.50;;
15408;SDS011;7803;48.130;13.788;2023-11-21T13:43:26;14.98;;;7.50;;
15408;SDS011;7803;48.130;13.788;2023-11-21T13:46:29;12.18;;;7.50;;
15408;SDS011;7803;48.130;13.788;2023-11-21T13:49:37;8.73;;;7.47;;
15408;SDS011;7803;48.130;13.788;2023-11-21T13:52:42;9.23;;;7.55;;
15408;SDS011;7803;48.130;13.788;2023-11-21T13:55:45;9.40;;;6.95;;
15408;SDS011;7803;48.130;13.788;2023-11-21T13:58:47;9.85;;;7.32;;
15408;SDS011;7803;48.130;13.788;2023-11-21T14:01:51;9.48;;;7.13;;
15408;SDS011;7803;48.130;13.788;2023-11-21T14:04:59;11.25;;;7.55;;
15408;SDS011;7803;48.130;13.788;2023-11-21T14:08:10;8.25;;;7.28;;
15408;SDS011;7803;48.130;13.788;2023-11-21T14:11:16;9.57;;;7.45;;
15408;SDS011;7803;48.130;13.788;2023-11-21T14:14:22;8.20;;;7.30;;
15408;SDS011;7803;48.130;13.788;2023-11-21T14:17:26;8.88;;;7.10;;
15408;SDS011;7803;48.130;13.788;2023-11-21T14:20:29;8.55;;;6.60;;
15408;SDS011;7803;48.130;13.788;2023-11-21T14:23:34;8.60;;;6.60;;
15408;SDS011;7803;48.130;13.788;2023-11-21T14:26:39;7.95;;;6.53;;
15408;SDS011;7803;48.130;13.788;2023-11-21T14:29:42;8.50;;;7.07;;
15408;SDS011;7803;48.130;13.788;2023-11-21T14:32:45;9.38;;;7.25;;
15408;SDS011;7803;48.130;13.788;2023-11-21T14:35:47;11.45;;;7.53;;
15408;SDS011;7803;48.130;13.788;2023-11-21T14:38:51;9.85;;;7.20;;
15408;SDS011;7803;48.130;13.788;2023-11-21T14:41:54;10.63;;;6.82;;
15408;SDS011;7803;48.130;13.788;2023-11-21T14:44:58;8.65;;;6.50;;
15408;SDS011;7803;48.130;13.788;2023-11-21T14:48:06;14.50;;;7.35;;
15408;SDS011;7803;48.130;13.788;2023-11-21T14:51:16;9.32;;;7.07;;
15408;SDS011;7803;48.130;13.788;2023-11-21T14:54:29;7.22;;;6.32;;
15408;SDS011;7803;48.130;13.788;2023-11-21T14:57:48;10.93;;;6.85;;
15408;SDS011;7803;48.130;13.788;2023-11-21T15:00:50;9.13;;;6.57;;
15408;SDS011;7803;48.130;13.788;2023-11-21T15:03:57;6.95;;;6.25;;
15408;SDS011;7803;48.130;13.788;2023-11-21T15:06:59;9.77;;;6.75;;
15408;SDS011;7803;48.130;13.788;2023-11-21T15:10:02;7.30;;;6.55;;
15408;SDS011;7803;48.130;13.788;2023-11-21T15:13:08;8.18;;;6.45;;
15408;SDS011;7803;48.130;13.788;2023-11-21T15:16:11;6.80;;;6.13;;
15408;SDS011;7803;48.130;13.788;2023-11-21T15:19:13;8.60;;;6.20;;
15408;SDS011;7803;48.130;13.788;2023-11-21T15:22:18;10.55;;;6.32;;
15408;SDS011;7803;48.130;13.788;2023-11-21T15:25:21;7.00;;;6.30;;
15408;SDS011;7803;48.130;13.788;2023-11-21T15:28:23;12.35;;;7.00;;
15408;SDS011;7803;48.130;13.788;2023-11-21T15:31:25;8.80;;;6.18;;
15408;SDS011;7803;48.130;13.788;2023-11-21T15:34:27;7.13;;;6.40;;
15408;SDS011;7803;48.130;13.788;2023-11-21T15:37:31;6.90;;;6.20;;
15408;SDS011;7803;48.130;13.788;2023-11-21T15:40:34;7.78;;;5.80;;
15408;SDS011;7803;48.130;13.788;2023-11-21T15:43:36;7.22;;;6.22;;
15408;SDS011;7803;48.130;13.788;2023-11-21T15:46:38;9.65;;;6.25;;
15408;SDS011;7803;48.130;13.788;2023-11-21T15:49:42;7.10;;;6.05;;
15408;SDS011;7803;48.130;13.788;2023-11-21T15:52:46;6.35;;;5.75;;
15408;SDS011;7803;48.130;13.788;2023-11-21T15:55:49;7.65;;;5.97;;
15408;SDS011;7803;48.130;13.788;2023-11-21T15:58:51;8.80;;;5.90;;
15408;SDS011;7803;48.130;13.788;2023-11-21T16:01:53;7.57;;;6.18;;
15408;SDS011;7803;48.130;13.788;2023-11-21T16:04:57;7.55;;;5.72;;
15408;SDS011;7803;48.130;13.788;2023-11-21T16:07:59;6.07;;;5.38;;
15408;SDS011;7803;48.130;13.788;2023-11-21T16:11:03;7.93;;;6.05;;
15408;SDS011;7803;48.130;13.788;2023-11-21T16:14:05;7.72;;;6.18;;
15408;SDS011;7803;48.130;13.788;2023-11-21T16:17:07;6.78;;;6.00;;
15408;SDS011;7803;48.130;13.788;2023-11-21T16:20:10;7.53;;;5.97;;
15408;SDS011;7803;48.130;13.788;2023-11-21T16:23:14;7.28;;;5.90;;
15408;SDS011;7803;48.130;13.788;2023-11-21T16:26:18;7.00;;;6.18;;
15408;SDS011;7803;48.130;13.788;2023-11-21T16:29:20;6.20;;;5.38;;
15408;SDS011;7803;48.130;13.788;2023-11-21T16:32:22;7.00;;;5.88;;
15408;SDS011;7803;48.130;13.788;2023-11-21T16:35:25;6.40;;;5.72;;
15408;SDS011;7803;48.130;13.788;2023-11-21T16:38:27;7.93;;;6.55;;
15408;SDS011;7803;48.130;13.788;2023-11-21T16:41:30;7.55;;;6.60;;
15408;SDS011;7803;48.130;13.788;2023-11-21T16:44:32;7.85;;;6.40;;
15408;SDS011;7803;48.130;13.788;2023-11-21T16:47:35;7.55;;;6.68;;
15408;SDS011;7803;48.130;13.788;2023-11-21T16:50:37;7.28;;;6.55;;
15408;SDS011;7803;48.130;13.788;2023-11-21T16:53:43;7.07;;;6.38;;
15408;SDS011;7803;48.130;13.788;2023-11-21T16:56:46;7.35;;;6.63;;
15408;SDS011;7803;48.130;13.788;2023-11-21T16:59:48;7.32;;;6.63;;
15408;SDS011;7803;48.130;13.788;2023-11-21T17:02:51;7.50;;;6.40;;
15408;SDS011;7803;48.130;13.788;2023-11-21T17:05:53;7.18;;;6.47;;
15408;SDS011;7803;48.130;13.788;2023-11-21T17:08:55;7.40;;;6.70;;
15408;SDS011;7803;48.130;13.788;2023-11-21T17:11:59;7.70;;;6.90;;
15408;SDS011;7803;48.130;13.788;2023-11-21T17:15:04;10.20;;;7.85;;
15408;SDS011;7803;48.130;13.788;2023-11-21T17:18:08;8.63;;;7.40;;
15408;SDS011;7803;48.130;13.788;2023-11-21T17:21:10;7.80;;;7.03;;
15408;SDS011;7803;48.130;13.788;2023-11-21T17:24:12;8.43;;;7.50;;
15408;SDS011;7803;48.130;13.788;2023-11-21T17:27:15;8.32;;;7.45;;
15408;SDS011;7803;48.130;13.788;2023-11-21T17:30:17;9.10;;;8.10;;
15408;SDS011;7803;48.130;13.788;2023-11-21T17:33:19;8.60;;;7.78;;
15408;SDS011;7803;48.130;13.788;2023-11-21T17:36:21;9.20;;;8.20;;
15408;SDS011;7803;48.130;13.788;2023-11-21T17:39:24;8.63;;;7.82;;
15408;SDS011;7803;48.130;13.788;2023-11-21T17:42:28;8.40;;;7.60;;
15408;SDS011;7803;48.130;13.788;2023-11-21T17:45:30;9.15;;;8.25;;
15408;SDS011;7803;48.130;13.788;2023-11-21T17:48:31;9.10;;;8.23;;
15408;SDS011;7803;48.130;13.788;2023-11-21T17:51:37;9.13;;;8.18;;
15408;SDS011;7803;48.130;13.788;2023-11-21T17:54:39;9.32;;;8.40;;
15408;SDS011;7803;48.130;13.788;2023-11-21T17:57:43;9.02;;;8.13;;
15408;SDS011;7803;48.130;13.788;2023-11-21T18:00:46;8.70;;;7.90;;
15408;SDS011;7803;48.130;13.788;2023-11-21T18:03:48;9.55;;;8.50;;
15408;SDS011;7803;48.130;13.788;2023-11-21T18:06:50;9.02;;;8.13;;
15408;SDS011;7803;48.130;13.788;2023-11-21T18:09:54;8.90;;;8.05;;
15408;SDS011;7803;48.130;13.788;2023-11-21T18:12:57;9.82;;;8.90;;
15408;SDS011;7803;48.130;13.788;2023-11-21T18:15:59;9.40;;;8.50;;
15408;SDS011;7803;48.130;13.788;2023-11-21T18:19:01;9.57;;;8.68;;